sensor_id;sensor_type;location;lat;lon;timestamp;pressure;altitude;pressure_sealevel;temperature;humidity
9307;BME280;4691;47.612;7.610;2022-12-17T00:00:15;98893.72;;;-3.59;100.00
9307;BME280;4691;47.612;7.610;2022-12-17T00:02:59;98905.94;;;-3.59;100.00
9307;BME280;4691;47.612;7.610;2022-12-17T00:05:43;98909.50;;;-3.65;100.00
9307;BME280;4691;47.612;7.610;2022-12-17T00:08:27;98919.88;;;-3.60;100.00
9307;BME280;4691;47.612;7.610;2022-12-17T00:11:11;98922.50;;;-3.60;100.00
9307;BME280;4691;47.612;7.610;2022-12-17T00:13:55;98911.97;;;-3.57;100.00
9307;BME280;4691;47.612;7.610;2022-12-17T00:16:39;98916.03;;;-3.42;100.00
9307;BME280;4691;47.612;7.610;2022-12-17T00:19:23;98903.88;;;-3.43;100.00
9307;BME280;4691;47.612;7.610;2022-12-17T00:22:07;98905.72;;;-3.48;100.00
9307;BME280;4691;47.612;7.610;2022-12-17T00:24:51;98900.34;;;-3.42;100.00
9307;BME280;4691;47.612;7.610;2022-12-17T00:27:35;98902.88;;;-3.38;100.00
9307;BME280;4691;47.612;7.610;2022-12-17T00:30:19;98899.41;;;-3.38;100.00
9307;BME280;4691;47.612;7.610;2022-12-17T00:33:03;98899.38;;;-3.37;100.00
9307;BME280;4691;47.612;7.610;2022-12-17T00:35:51;98912.34;;;-3.32;100.00
9307;BME280;4691;47.612;7.610;2022-12-17T00:38:35;98916.13;;;-3.45;100.00
9307;BME280;4691;47.612;7.610;2022-12-17T00:41:20;98915.25;;;-3.46;100.00
9307;BME280;4691;47.612;7.610;2022-12-17T00:44:04;98918.72;;;-3.44;100.00
9307;BME280;4691;47.612;7.610;2022-12-17T00:46:48;98907.25;;;-3.38;100.00
9307;BME280;4691;47.612;7.610;2022-12-17T00:49:31;98903.75;;;-3.37;100.00
9307;BME280;4691;47.612;7.610;2022-12-17T00:52:15;98911.47;;;-3.31;100.00
9307;BME280;4691;47.612;7.610;2022-12-17T00:54:59;98914.03;;;-3.28;100.00
9307;BME280;4691;47.612;7.610;2022-12-17T00:57:42;98915.66;;;-3.24;100.00
9307;BME280;4691;47.612;7.610;2022-12-17T01:00:26;98920.84;;;-3.21;100.00
9307;BME280;4691;47.612;7.610;2022-12-17T01:03:11;98932.03;;;-3.13;100.00
9307;BME280;4691;47.612;7.610;2022-12-17T01:06:00;98933.81;;;-3.16;100.00
9307;BME280;4691;47.612;7.610;2022-12-17T01:08:45;98941.50;;;-3.09;100.00
9307;BME280;4691;47.612;7.610;2022-12-17T01:11:29;98929.34;;;-3.11;100.00
9307;BME280;4691;47.612;7.610;2022-12-17T01:14:13;98925.81;;;-3.09;100.00
9307;BME280;4691;47.612;7.610;2022-12-17T01:16:57;98917.16;;;-3.11;100.00
9307;BME280;4691;47.612;7.610;2022-12-17T01:19:41;98909.19;;;-3.06;100.00
9307;BME280;4691;47.612;7.610;2022-12-17T01:22:24;98909.06;;;-3.00;100.00
9307;BME280;4691;47.612;7.610;2022-12-17T01:25:08;98905.63;;;-3.02;100.00
9307;BME280;4691;47.612;7.610;2022-12-17T01:27:52;98891.75;;;-3.05;100.00
9307;BME280;4691;47.612;7.610;2022-12-17T01:30:36;98889.16;;;-3.07;100.00
9307;BME280;4691;47.612;7.610;2022-12-17T01:33:21;98884.09;;;-3.15;100.00
9307;BME280;4691;47.612;7.610;2022-12-17T01:36:05;98861.78;;;-3.31;100.00
9307;BME280;4691;47.612;7.610;2022-12-17T01:38:50;98864.25;;;-3.25;100.00
9307;BME280;4691;47.612;7.610;2022-12-17T01:41:34;98852.03;;;-3.24;100.00
9307;BME280;4691;47.612;7.610;2022-12-17T01:47:43;98826.41;;;-3.09;100.00
9307;BME280;4691;47.612;7.610;2022-12-17T01:50:33;98824.88;;;-3.19;100.00
9307;BME280;4691;47.612;7.610;2022-12-17T01:53:22;98817.00;;;-3.16;100.00
9307;BME280;4691;47.612;7.610;2022-12-17T01:56:07;98820.38;;;-3.12;100.00
9307;BME280;4691;47.612;7.610;2022-12-17T01:58:52;98815.06;;;-3.09;100.00
9307;BME280;4691;47.612;7.610;2022-12-17T02:01:36;98809.06;;;-3.13;100.00
9307;BME280;4691;47.612;7.610;2022-12-17T02:04:20;98801.16;;;-3.10;100.00
9307;BME280;4691;47.612;7.610;2022-12-17T02:09:59;98802.81;;;-3.05;100.00
9307;BME280;4691;47.612;7.610;2022-12-17T02:12:53;98798.38;;;-3.03;100.00
9307;BME280;4691;47.612;7.610;2022-12-17T02:15:56;98786.97;;;-3.01;100.00
9307;BME280;4691;47.612;7.610;2022-12-17T02:22:07;98757.31;;;-3.00;100.00
9307;BME280;4691;47.612;7.610;2022-12-17T02:25:17;98746.78;;;-2.97;100.00
9307;BME280;4691;47.612;7.610;2022-12-17T02:28:05;98732.75;;;-2.94;100.00
9307;BME280;4691;47.612;7.610;2022-12-17T02:30:49;98736.28;;;-2.95;100.00
9307;BME280;4691;47.612;7.610;2022-12-17T02:33:33;98732.00;;;-2.99;100.00
9307;BME280;4691;47.612;7.610;2022-12-17T02:36:17;98728.53;;;-3.00;100.00
9307;BME280;4691;47.612;7.610;2022-12-17T02:39:01;98737.13;;;-2.95;100.00
9307;BME280;4691;47.612;7.610;2022-12-17T02:41:51;98729.19;;;-2.90;100.00
9307;BME280;4691;47.612;7.610;2022-12-17T02:44:37;98731.91;;;-2.95;100.00
9307;BME280;4691;47.612;7.610;2022-12-17T02:47:23;98726.69;;;-2.96;100.00
9307;BME280;4691;47.612;7.610;2022-12-17T02:50:08;98726.56;;;-2.90;100.00
9307;BME280;4691;47.612;7.610;2022-12-17T02:52:54;98728.19;;;-2.86;100.00
9307;BME280;4691;47.612;7.610;2022-12-17T02:55:41;98731.84;;;-2.93;100.00
9307;BME280;4691;47.612;7.610;2022-12-17T02:58:25;98729.97;;;-2.88;100.00
9307;BME280;4691;47.612;7.610;2022-12-17T03:01:08;98724.69;;;-2.85;100.00
9307;BME280;4691;47.612;7.610;2022-12-17T03:03:52;98720.44;;;-2.91;100.00
9307;BME280;4691;47.612;7.610;2022-12-17T03:06:36;98724.75;;;-2.88;100.00
9307;BME280;4691;47.612;7.610;2022-12-17T03:09:20;98722.88;;;-2.83;100.00
9307;BME280;4691;47.612;7.610;2022-12-17T03:12:04;98724.72;;;-2.87;100.00
9307;BME280;4691;47.612;7.610;2022-12-17T03:14:48;98721.25;;;-2.87;100.00
9307;BME280;4691;47.612;7.610;2022-12-17T03:19:33;98539.13;;;-2.94;100.00
9307;BME280;4691;47.612;7.610;2022-12-17T03:22:17;98550.31;;;-2.89;100.00
9307;BME280;4691;47.612;7.610;2022-12-17T03:25:00;98554.66;;;-2.88;100.00
9307;BME280;4691;47.612;7.610;2022-12-17T03:27:55;98567.91;;;-2.94;100.00
9307;BME280;4691;47.612;7.610;2022-12-17T03:30:39;98560.06;;;-2.94;100.00
9307;BME280;4691;47.612;7.610;2022-12-17T03:33:22;98562.84;;;-3.00;100.00
9307;BME280;4691;47.612;7.610;2022-12-17T03:36:07;98565.47;;;-3.00;100.00
9307;BME280;4691;47.612;7.610;2022-12-17T03:38:50;98564.69;;;-3.04;100.00
9307;BME280;4691;47.612;7.610;2022-12-17T03:41:34;98564.66;;;-3.02;100.00
9307;BME280;4691;47.612;7.610;2022-12-17T03:44:18;98557.78;;;-3.07;100.00
9307;BME280;4691;47.612;7.610;2022-12-17T03:47:02;98555.28;;;-3.11;100.00
9307;BME280;4691;47.612;7.610;2022-12-17T03:49:46;98551.97;;;-3.18;100.00
9307;BME280;4691;47.612;7.610;2022-12-17T03:52:29;98545.38;;;-3.31;100.00
9307;BME280;4691;47.612;7.610;2022-12-17T03:55:13;98546.41;;;-3.38;100.00
9307;BME280;4691;47.612;7.610;2022-12-17T03:57:57;98534.63;;;-3.55;100.00
9307;BME280;4691;47.612;7.610;2022-12-17T04:00:41;98528.78;;;-3.64;100.00
9307;BME280;4691;47.612;7.610;2022-12-17T04:03:25;98517.66;;;-3.73;100.00
9307;BME280;4691;47.612;7.610;2022-12-17T04:06:08;98500.53;;;-3.84;100.00
9307;BME280;4691;47.612;7.610;2022-12-17T04:08:52;98507.63;;;-3.89;100.00
9307;BME280;4691;47.612;7.610;2022-12-17T04:11:36;98507.94;;;-4.02;100.00
9307;BME280;4691;47.612;7.610;2022-12-17T04:14:20;98501.09;;;-4.06;100.00
9307;BME280;4691;47.612;7.610;2022-12-17T04:17:04;98504.66;;;-4.10;100.00
9307;BME280;4691;47.612;7.610;2022-12-17T04:19:48;98513.53;;;-4.17;100.00
9307;BME280;4691;47.612;7.610;2022-12-17T04:22:31;98518.81;;;-4.20;100.00
9307;BME280;4691;47.612;7.610;2022-12-17T04:25:15;98532.63;;;-4.15;100.00
9307;BME280;4691;47.612;7.610;2022-12-17T04:27:59;98555.38;;;-4.20;100.00
9307;BME280;4691;47.612;7.610;2022-12-17T04:30:43;98556.16;;;-4.17;100.00
9307;BME280;4691;47.612;7.610;2022-12-17T04:33:26;98562.25;;;-4.16;100.00
9307;BME280;4691;47.612;7.610;2022-12-17T04:36:10;98569.25;;;-4.18;100.00
9307;BME280;4691;47.612;7.610;2022-12-17T04:38:54;98572.63;;;-4.13;100.00
9307;BME280;4691;47.612;7.610;2022-12-17T04:41:38;98579.63;;;-4.13;100.00
9307;BME280;4691;47.612;7.610;2022-12-17T04:44:21;98590.09;;;-4.15;100.00
9307;BME280;4691;47.612;7.610;2022-12-17T04:47:05;98585.81;;;-4.19;100.00
9307;BME280;4691;47.612;7.610;2022-12-17T04:49:49;98572.75;;;-4.19;100.00
9307;BME280;4691;47.612;7.610;2022-12-17T04:52:43;98559.09;;;-4.30;100.00
9307;BME280;4691;47.612;7.610;2022-12-17T04:55:27;98560.88;;;-4.32;100.00
9307;BME280;4691;47.612;7.610;2022-12-17T04:58:27;98568.09;;;-4.44;100.00
9307;BME280;4691;47.612;7.610;2022-12-17T05:01:11;98559.69;;;-4.58;100.00
9307;BME280;4691;47.612;7.610;2022-12-17T05:03:55;98551.09;;;-4.63;100.00
9307;BME280;4691;47.612;7.610;2022-12-17T05:06:39;98555.38;;;-4.61;100.00
9307;BME280;4691;47.612;7.610;2022-12-17T05:09:23;98517.06;;;-4.57;100.00
9307;BME280;4691;47.612;7.610;2022-12-17T05:12:06;98521.50;;;-4.62;100.00
9307;BME280;4691;47.612;7.610;2022-12-17T05:14:50;98511.09;;;-4.64;100.00
9307;BME280;4691;47.612;7.610;2022-12-17T05:17:34;98495.47;;;-4.65;100.00
9307;BME280;4691;47.612;7.610;2022-12-17T05:20:18;98504.84;;;-4.56;100.00
9307;BME280;4691;47.612;7.610;2022-12-17T05:23:06;98507.56;;;-4.63;100.00
9307;BME280;4691;47.612;7.610;2022-12-17T05:26:05;98506.03;;;-4.71;100.00
9307;BME280;4691;47.612;7.610;2022-12-17T05:28:50;98503.44;;;-4.71;100.00
9307;BME280;4691;47.612;7.610;2022-12-17T05:31:33;98509.47;;;-4.69;100.00
9307;BME280;4691;47.612;7.610;2022-12-17T05:34:18;98496.69;;;-4.80;100.00
9307;BME280;4691;47.612;7.610;2022-12-17T05:37:01;98491.38;;;-4.77;100.00
9307;BME280;4691;47.612;7.610;2022-12-17T05:39:46;98486.88;;;-4.70;100.00
9307;BME280;4691;47.612;7.610;2022-12-17T05:42:59;98481.94;;;-4.83;100.00
9307;BME280;4691;47.612;7.610;2022-12-17T05:45:44;98473.22;;;-4.82;100.00
9307;BME280;4691;47.612;7.610;2022-12-17T05:48:28;98475.22;;;-4.93;100.00
9307;BME280;4691;47.612;7.610;2022-12-17T05:51:12;98467.97;;;-4.80;100.00
9307;BME280;4691;47.612;7.610;2022-12-17T05:53:56;98456.81;;;-4.88;100.00
9307;BME280;4691;47.612;7.610;2022-12-17T05:56:40;98462.84;;;-4.85;100.00
9307;BME280;4691;47.612;7.610;2022-12-17T05:59:23;98474.06;;;-4.79;100.00
9307;BME280;4691;47.612;7.610;2022-12-17T06:02:07;98475.91;;;-4.85;100.00
9307;BME280;4691;47.612;7.610;2022-12-17T06:04:51;98462.09;;;-4.90;100.00
9307;BME280;4691;47.612;7.610;2022-12-17T06:07:34;98461.19;;;-4.89;100.00
9307;BME280;4691;47.612;7.610;2022-12-17T06:10:18;98456.81;;;-4.88;100.00
9307;BME280;4691;47.612;7.610;2022-12-17T06:13:02;98459.59;;;-4.96;100.00
9307;BME280;4691;47.612;7.610;2022-12-17T06:15:49;98463.03;;;-4.94;100.00
9307;BME280;4691;47.612;7.610;2022-12-17T06:18:34;98464.81;;;-4.96;100.00
9307;BME280;4691;47.612;7.610;2022-12-17T06:21:18;98457.72;;;-4.88;100.00
9307;BME280;4691;47.612;7.610;2022-12-17T06:24:02;98476.84;;;-4.89;100.00
9307;BME280;4691;47.612;7.610;2022-12-17T06:26:57;98463.72;;;-4.86;100.00
9307;BME280;4691;47.612;7.610;2022-12-17T06:29:57;98455.06;;;-4.86;100.00
9307;BME280;4691;47.612;7.610;2022-12-17T06:32:41;98462.84;;;-4.85;100.00
9307;BME280;4691;47.612;7.610;2022-12-17T06:35:26;98457.63;;;-4.85;100.00
9307;BME280;4691;47.612;7.610;2022-12-17T06:38:10;98474.22;;;-4.89;100.00
9307;BME280;4691;47.612;7.610;2022-12-17T06:40:53;98469.84;;;-4.87;100.00
9307;BME280;4691;47.612;7.610;2022-12-17T06:43:37;98468.94;;;-4.86;100.00
9307;BME280;4691;47.612;7.610;2022-12-17T06:46:21;98469.00;;;-4.89;100.00
9307;BME280;4691;47.612;7.610;2022-12-17T06:49:05;98480.34;;;-4.90;100.00
9307;BME280;4691;47.612;7.610;2022-12-17T06:51:49;98483.06;;;-4.94;100.00
9307;BME280;4691;47.612;7.610;2022-12-17T06:54:33;98478.69;;;-4.94;100.00
9307;BME280;4691;47.612;7.610;2022-12-17T06:57:17;98470.69;;;-4.85;100.00
9307;BME280;4691;47.612;7.610;2022-12-17T07:00:01;98473.31;;;-4.86;100.00
9307;BME280;4691;47.612;7.610;2022-12-17T07:02:44;98469.78;;;-4.84;100.00
9307;BME280;4691;47.612;7.610;2022-12-17T07:05:28;98457.56;;;-4.82;100.00
9307;BME280;4691;47.612;7.610;2022-12-17T07:08:12;98452.41;;;-4.85;100.00
9307;BME280;4691;47.612;7.610;2022-12-17T07:10:59;98460.03;;;-4.75;100.00
9307;BME280;4691;47.612;7.610;2022-12-17T07:13:43;98460.84;;;-4.73;100.00
9307;BME280;4691;47.612;7.610;2022-12-17T07:16:27;98463.38;;;-4.70;100.00
9307;BME280;4691;47.612;7.610;2022-12-17T07:19:11;98478.03;;;-4.63;100.00
9307;BME280;4691;47.612;7.610;2022-12-17T07:21:55;98485.75;;;-4.57;100.00
9307;BME280;4691;47.612;7.610;2022-12-17T07:24:39;98504.00;;;-4.57;100.00
9307;BME280;4691;47.612;7.610;2022-12-17T07:27:23;98499.63;;;-4.56;100.00
9307;BME280;4691;47.612;7.610;2022-12-17T07:30:07;98507.28;;;-4.49;100.00
9307;BME280;4691;47.612;7.610;2022-12-17T07:33:07;98520.19;;;-4.41;100.00
9307;BME280;4691;47.612;7.610;2022-12-17T07:35:52;98527.91;;;-4.36;100.00
9307;BME280;4691;47.612;7.610;2022-12-17T07:38:36;98533.16;;;-4.40;100.00
9307;BME280;4691;47.612;7.610;2022-12-17T07:41:20;98541.56;;;-4.25;100.00
9307;BME280;4691;47.612;7.610;2022-12-17T07:44:04;98540.06;;;-4.37;100.00
9307;BME280;4691;47.612;7.610;2022-12-17T07:46:48;98548.72;;;-4.33;100.00
9307;BME280;4691;47.612;7.610;2022-12-17T07:49:32;98555.56;;;-4.28;100.00
9307;BME280;4691;47.612;7.610;2022-12-17T07:52:17;98565.91;;;-4.23;100.00
9307;BME280;4691;47.612;7.610;2022-12-17T07:55:00;98566.22;;;-4.39;100.00
9307;BME280;4691;47.612;7.610;2022-12-17T07:57:44;98574.00;;;-4.37;100.00
9307;BME280;4691;47.612;7.610;2022-12-17T08:00:28;98579.22;;;-4.35;100.00
9307;BME280;4691;47.612;7.610;2022-12-17T08:03:11;98568.50;;;-4.23;100.00
9307;BME280;4691;47.612;7.610;2022-12-17T08:05:58;98570.47;;;-4.34;100.00
9307;BME280;4691;47.612;7.610;2022-12-17T08:08:42;98573.00;;;-4.30;100.00
9307;BME280;4691;47.612;7.610;2022-12-17T08:11:26;98563.22;;;-4.20;100.00
9307;BME280;4691;47.612;7.610;2022-12-17T08:14:10;98558.91;;;-4.21;100.00
9307;BME280;4691;47.612;7.610;2022-12-17T08:16:54;98563.88;;;-4.12;100.00
9307;BME280;4691;47.612;7.610;2022-12-17T08:19:38;98557.78;;;-4.11;100.00
9307;BME280;4691;47.612;7.610;2022-12-17T08:22:21;98558.47;;;-4.03;100.00
9307;BME280;4691;47.612;7.610;2022-12-17T08:25:06;98559.88;;;-3.89;100.00
9307;BME280;4691;47.612;7.610;2022-12-17T08:27:55;98558.59;;;-3.73;100.00
9307;BME280;4691;47.612;7.610;2022-12-17T08:30:40;98564.59;;;-3.68;100.00
9307;BME280;4691;47.612;7.610;2022-12-17T08:33:24;98560.28;;;-3.69;100.00
9307;BME280;4691;47.612;7.610;2022-12-17T08:36:08;98557.47;;;-3.61;100.00
9307;BME280;4691;47.612;7.610;2022-12-17T08:38:51;98551.38;;;-3.62;100.00
9307;BME280;4691;47.612;7.610;2022-12-17T08:41:35;98552.97;;;-3.56;100.00
9307;BME280;4691;47.612;7.610;2022-12-17T08:44:19;98548.53;;;-3.53;100.00
9307;BME280;4691;47.612;7.610;2022-12-17T08:47:02;98544.69;;;-3.39;100.00
9307;BME280;4691;47.612;7.610;2022-12-17T08:49:46;98542.00;;;-3.36;100.00
9307;BME280;4691;47.612;7.610;2022-12-17T08:52:30;98543.47;;;-3.59;100.00
9307;BME280;4691;47.612;7.610;2022-12-17T08:55:14;98535.97;;;-3.38;100.00
9307;BME280;4691;47.612;7.610;2022-12-17T08:57:58;98534.81;;;-3.28;100.00
9307;BME280;4691;47.612;7.610;2022-12-17T09:00:43;98527.63;;;-3.20;100.00
9307;BME280;4691;47.612;7.610;2022-12-17T09:03:27;98514.63;;;-3.23;100.00
9307;BME280;4691;47.612;7.610;2022-12-17T09:06:12;98511.00;;;-3.19;100.00
9307;BME280;4691;47.612;7.610;2022-12-17T09:08:56;98516.09;;;-3.13;100.00
9307;BME280;4691;47.612;7.610;2022-12-17T09:11:40;98509.28;;;-3.18;100.00
9307;BME280;4691;47.612;7.610;2022-12-17T09:14:25;98514.31;;;-3.11;100.00
9307;BME280;4691;47.612;7.610;2022-12-17T09:17:09;98514.22;;;-3.08;100.00
9307;BME280;4691;47.612;7.610;2022-12-17T09:19:53;98522.69;;;-2.99;100.00
9307;BME280;4691;47.612;7.610;2022-12-17T09:22:37;98519.16;;;-2.98;100.00
9307;BME280;4691;47.612;7.610;2022-12-17T09:25:21;98520.72;;;-2.91;100.00
9307;BME280;4691;47.612;7.610;2022-12-17T09:28:04;98524.84;;;-2.82;100.00
9307;BME280;4691;47.612;7.610;2022-12-17T09:30:48;98539.66;;;-2.83;100.00
9307;BME280;4691;47.612;7.610;2022-12-17T09:33:32;98535.03;;;-2.73;100.00
9307;BME280;4691;47.612;7.610;2022-12-17T09:36:17;98532.19;;;-2.66;100.00
9307;BME280;4691;47.612;7.610;2022-12-17T09:39:01;98585.72;;;-2.76;100.00
9307;BME280;4691;47.612;7.610;2022-12-17T09:44:47;98586.34;;;-2.68;100.00
9307;BME280;4691;47.612;7.610;2022-12-17T09:50:31;98599.91;;;-2.53;100.00
9307;BME280;4691;47.612;7.610;2022-12-17T09:53:26;98607.50;;;-2.44;100.00
9307;BME280;4691;47.612;7.610;2022-12-17T09:56:12;98608.09;;;-2.05;100.00
9307;BME280;4691;47.612;7.610;2022-12-17T09:58:58;98623.78;;;-2.33;100.00
9307;BME280;4691;47.612;7.610;2022-12-17T10:01:42;98624.56;;;-1.45;100.00
9307;BME280;4691;47.612;7.610;2022-12-17T10:04:39;98654.00;;;-1.37;100.00
9307;BME280;4691;47.612;7.610;2022-12-17T10:07:31;98664.25;;;-1.84;100.00
9307;BME280;4691;47.612;7.610;2022-12-17T10:13:00;98681.88;;;-1.33;100.00
9307;BME280;4691;47.612;7.610;2022-12-17T10:15:44;98695.81;;;-1.59;100.00
9307;BME280;4691;47.612;7.610;2022-12-17T10:18:28;98707.53;;;-1.14;100.00
9307;BME280;4691;47.612;7.610;2022-12-17T10:21:13;98726.44;;;-1.59;100.00
9307;BME280;4691;47.612;7.610;2022-12-17T10:24:07;98729.31;;;-1.39;100.00
9307;BME280;4691;47.612;7.610;2022-12-17T10:26:52;98748.28;;;-1.30;100.00
9307;BME280;4691;47.612;7.610;2022-12-17T10:29:38;98766.59;;;-1.29;100.00
9307;BME280;4691;47.612;7.610;2022-12-17T10:32:24;98785.63;;;-1.22;100.00
9307;BME280;4691;47.612;7.610;2022-12-17T10:35:21;98797.97;;;-1.54;100.00
9307;BME280;4691;47.612;7.610;2022-12-17T10:38:19;98795.78;;;-1.40;100.00
9307;BME280;4691;47.612;7.610;2022-12-17T10:41:15;98807.25;;;-1.14;100.00
9307;BME280;4691;47.612;7.610;2022-12-17T10:44:00;98813.25;;;-1.70;100.00
9307;BME280;4691;47.612;7.610;2022-12-17T10:46:44;98810.09;;;-2.14;100.00
9307;BME280;4691;47.612;7.610;2022-12-17T10:49:28;98799.25;;;-2.33;100.00
9307;BME280;4691;47.612;7.610;2022-12-17T10:52:28;98788.94;;;-2.39;100.00
9307;BME280;4691;47.612;7.610;2022-12-17T10:55:24;98775.41;;;-2.24;100.00
9307;BME280;4691;47.612;7.610;2022-12-17T10:58:14;98775.19;;;-2.14;100.00
9307;BME280;4691;47.612;7.610;2022-12-17T11:00:59;98771.47;;;-2.38;100.00
9307;BME280;4691;47.612;7.610;2022-12-17T11:03:55;98760.31;;;-2.47;100.00
9307;BME280;4691;47.612;7.610;2022-12-17T11:06:45;98747.75;;;-2.34;100.00
9307;BME280;4691;47.612;7.610;2022-12-17T11:09:42;98751.03;;;-1.63;100.00
9307;BME280;4691;47.612;7.610;2022-12-17T11:12:54;98761.66;;;-1.12;100.00
9307;BME280;4691;47.612;7.610;2022-12-17T11:15:50;98828.34;;;-1.17;100.00
9307;BME280;4691;47.612;7.610;2022-12-17T11:21:45;98853.22;;;-1.30;100.00
9307;BME280;4691;47.612;7.610;2022-12-17T11:24:37;98866.41;;;-1.63;100.00
9307;BME280;4691;47.612;7.610;2022-12-17T11:27:26;98889.25;;;-1.68;100.00
9307;BME280;4691;47.612;7.610;2022-12-17T11:30:15;98876.94;;;-1.98;100.00
9307;BME280;4691;47.612;7.610;2022-12-17T11:36:04;98861.53;;;-1.77;100.00
9307;BME280;4691;47.612;7.610;2022-12-17T11:39:06;98857.47;;;-1.56;100.00
9307;BME280;4691;47.612;7.610;2022-12-17T11:41:58;98861.56;;;-1.79;100.00
9307;BME280;4691;47.612;7.610;2022-12-17T11:44:53;98857.22;;;-2.12;100.00
9307;BME280;4691;47.612;7.610;2022-12-17T11:48:00;98849.28;;;-1.77;100.00
9307;BME280;4691;47.612;7.610;2022-12-17T11:50:59;98836.28;;;-1.50;100.00
9307;BME280;4691;47.612;7.610;2022-12-17T11:57:25;98846.56;;;-1.42;100.00
9307;BME280;4691;47.612;7.610;2022-12-17T12:00:21;98847.59;;;-2.10;100.00
9307;BME280;4691;47.612;7.610;2022-12-17T12:07:17;98822.34;;;-1.82;100.00
9307;BME280;4691;47.612;7.610;2022-12-17T12:10:20;98821.50;;;-1.84;100.00
9307;BME280;4691;47.612;7.610;2022-12-17T12:13:24;98823.97;;;-1.46;100.00
9307;BME280;4691;47.612;7.610;2022-12-17T12:19:56;98855.00;;;-1.03;100.00
9307;BME280;4691;47.612;7.610;2022-12-17T12:26:12;98864.28;;;-0.36;100.00
9307;BME280;4691;47.612;7.610;2022-12-17T12:34:44;98869.69;;;-1.25;100.00
9307;BME280;4691;47.612;7.610;2022-12-17T12:37:28;98851.53;;;-0.75;100.00
9307;BME280;4691;47.612;7.610;2022-12-17T12:40:30;98860.53;;;-1.42;100.00
9307;BME280;4691;47.612;7.610;2022-12-17T12:43:28;98844.44;;;-1.29;100.00
9307;BME280;4691;47.612;7.610;2022-12-17T12:49:37;98841.72;;;-1.26;100.00
9307;BME280;4691;47.612;7.610;2022-12-17T12:52:25;98841.19;;;-1.38;100.00
9307;BME280;4691;47.612;7.610;2022-12-17T12:55:10;98841.97;;;-1.65;100.00
9307;BME280;4691;47.612;7.610;2022-12-17T12:58:02;98816.13;;;-1.48;100.00
9307;BME280;4691;47.612;7.610;2022-12-17T13:03:39;98784.69;;;-2.10;100.00
9307;BME280;4691;47.612;7.610;2022-12-17T13:06:46;98764.75;;;-2.16;100.00
9307;BME280;4691;47.612;7.610;2022-12-17T13:12:07;98744.38;;;-2.37;100.00
9307;BME280;4691;47.612;7.610;2022-12-17T13:14:58;98736.44;;;-2.34;100.00
9307;BME280;4691;47.612;7.610;2022-12-17T13:17:31;98721.22;;;-2.22;100.00
9307;BME280;4691;47.612;7.610;2022-12-17T13:22:51;98710.41;;;-2.09;100.00
9307;BME280;4691;47.612;7.610;2022-12-17T13:25:20;98692.63;;;-2.29;100.00
9307;BME280;4691;47.612;7.610;2022-12-17T13:27:46;98693.47;;;-2.29;100.00
9307;BME280;4691;47.612;7.610;2022-12-17T13:30:22;98684.03;;;-2.34;100.00
9307;BME280;4691;47.612;7.610;2022-12-17T13:38:41;98668.00;;;-2.86;100.00
9307;BME280;4691;47.612;7.610;2022-12-17T13:41:14;98653.25;;;-2.57;100.00
9307;BME280;4691;47.612;7.610;2022-12-17T13:43:48;98640.75;;;-2.79;100.00
9307;BME280;4691;47.612;7.610;2022-12-17T13:46:23;98629.97;;;-2.67;100.00
9307;BME280;4691;47.612;7.610;2022-12-17T13:48:58;98626.97;;;-2.54;100.00
9307;BME280;4691;47.612;7.610;2022-12-17T13:51:26;98626.09;;;-2.53;100.00
9307;BME280;4691;47.612;7.610;2022-12-17T13:53:57;98625.69;;;-2.69;100.00
9307;BME280;4691;47.612;7.610;2022-12-17T13:56:28;98613.03;;;-2.86;100.00
9307;BME280;4691;47.612;7.610;2022-12-17T13:58:56;98607.06;;;-2.91;100.00
9307;BME280;4691;47.612;7.610;2022-12-17T14:01:22;98609.13;;;-3.02;100.00
9307;BME280;4691;47.612;7.610;2022-12-17T14:04:00;98609.25;;;-3.09;100.00
9307;BME280;4691;47.612;7.610;2022-12-17T14:06:28;98596.03;;;-3.02;100.00
9307;BME280;4691;47.612;7.610;2022-12-17T14:08:56;98595.94;;;-2.99;100.00
9307;BME280;4691;47.612;7.610;2022-12-17T14:11:22;98587.19;;;-2.98;100.00
9307;BME280;4691;47.612;7.610;2022-12-17T14:14:19;98581.09;;;-2.99;100.00
9307;BME280;4691;47.612;7.610;2022-12-17T14:16:47;98580.91;;;-3.24;100.00
9307;BME280;4691;47.612;7.610;2022-12-17T14:19:12;98589.09;;;-3.38;100.00
9307;BME280;4691;47.612;7.610;2022-12-17T14:21:38;98589.88;;;-3.34;100.00
9307;BME280;4691;47.612;7.610;2022-12-17T14:24:05;98585.16;;;-3.20;100.00
9307;BME280;4691;47.612;7.610;2022-12-17T14:26:31;98584.34;;;-3.22;100.00
9307;BME280;4691;47.612;7.610;2022-12-17T14:28:56;98583.03;;;-3.38;100.00
9307;BME280;4691;47.612;7.610;2022-12-17T14:31:24;98581.28;;;-3.39;100.00
9307;BME280;4691;47.612;7.610;2022-12-17T14:34:06;98601.53;;;-3.46;100.00
9307;BME280;4691;47.612;7.610;2022-12-17T14:36:32;98605.66;;;-3.37;100.00
9307;BME280;4691;47.612;7.610;2022-12-17T14:39:00;98618.06;;;-3.45;100.00
9307;BME280;4691;47.612;7.610;2022-12-17T14:41:27;98637.41;;;-3.53;100.00
9307;BME280;4691;47.612;7.610;2022-12-17T14:44:25;98634.19;;;-3.64;100.00
9307;BME280;4691;47.612;7.610;2022-12-17T14:49:38;98658.53;;;-3.62;100.00
9307;BME280;4691;47.612;7.610;2022-12-17T14:52:25;98669.88;;;-3.63;100.00
9307;BME280;4691;47.612;7.610;2022-12-17T14:54:51;98680.59;;;-3.75;100.00
9307;BME280;4691;47.612;7.610;2022-12-17T14:57:19;98688.28;;;-3.67;100.00
9307;BME280;4691;47.612;7.610;2022-12-17T14:59:45;98722.41;;;-3.75;100.00
9307;BME280;4691;47.612;7.610;2022-12-17T15:02:23;98738.47;;;-3.92;100.00
9307;BME280;4691;47.612;7.610;2022-12-17T15:04:52;98758.50;;;-3.92;100.00
9307;BME280;4691;47.612;7.610;2022-12-17T15:07:28;98772.44;;;-3.94;100.00
9307;BME280;4691;47.612;7.610;2022-12-17T15:09:54;98793.03;;;-3.78;100.00
9307;BME280;4691;47.612;7.610;2022-12-17T15:12:20;98809.69;;;-3.82;100.00
9307;BME280;4691;47.612;7.610;2022-12-17T15:14:46;98818.53;;;-3.89;100.00
9307;BME280;4691;47.612;7.610;2022-12-17T15:17:12;98839.53;;;-3.94;100.00
9307;BME280;4691;47.612;7.610;2022-12-17T15:19:38;98854.56;;;-4.07;100.00
9307;BME280;4691;47.612;7.610;2022-12-17T15:22:03;98873.69;;;-4.05;100.00
9307;BME280;4691;47.612;7.610;2022-12-17T15:24:29;98883.28;;;-4.05;100.00
9307;BME280;4691;47.612;7.610;2022-12-17T15:26:54;98931.88;;;-3.97;100.00
9307;BME280;4691;47.612;7.610;2022-12-17T15:29:20;98932.84;;;-4.01;100.00
9307;BME280;4691;47.612;7.610;2022-12-17T15:31:45;98887.25;;;-3.84;100.00
9307;BME280;4691;47.612;7.610;2022-12-17T15:34:11;98904.91;;;-3.97;100.00
9307;BME280;4691;47.612;7.610;2022-12-17T15:36:36;98925.66;;;-3.89;100.00
9307;BME280;4691;47.612;7.610;2022-12-17T15:39:02;98944.09;;;-3.97;100.00
9307;BME280;4691;47.612;7.610;2022-12-17T15:41:30;98966.09;;;-4.10;100.00
9307;BME280;4691;47.612;7.610;2022-12-17T15:44:14;98981.88;;;-4.18;100.00